sensor_id;sensor_type;location;lat;lon;timestamp;P1;durP1;ratioP1;P2;durP2;ratioP2
69401;SDS011;56589;51.992;5.924;2022-09-20T00:01:39;8.98;;;2.00;;
69401;SDS011;56589;51.992;5.924;2022-09-20T00:04:08;9.25;;;1.60;;
69401;SDS011;56589;51.992;5.924;2022-09-20T00:06:34;11.68;;;2.03;;
69401;SDS011;56589;51.992;5.924;2022-09-20T00:09:00;13.45;;;1.92;;
69401;SDS011;56589;51.992;5.924;2022-09-20T00:11:27;7.07;;;1.67;;
69401;SDS011;56589;51.992;5.924;2022-09-20T00:13:56;8.75;;;1.35;;
69401;SDS011;56589;51.992;5.924;2022-09-20T00:16:25;11.18;;;2.75;;
69401;SDS011;56589;51.992;5.924;2022-09-20T00:18:54;5.47;;;1.05;;
69401;SDS011;56589;51.992;5.924;2022-09-20T00:21:25;13.73;;;2.03;;
69401;SDS011;56589;51.992;5.924;2022-09-20T00:23:54;5.82;;;1.48;;
69401;SDS011;56589;51.992;5.924;2022-09-20T00:26:21;8.27;;;1.38;;
69401;SDS011;56589;51.992;5.924;2022-09-20T00:28:47;7.03;;;1.67;;
69401;SDS011;56589;51.992;5.924;2022-09-20T00:31:13;11.50;;;1.35;;
69401;SDS011;56589;51.992;5.924;2022-09-20T00:33:39;5.45;;;1.35;;
69401;SDS011;56589;51.992;5.924;2022-09-20T00:36:06;7.10;;;1.08;;
69401;SDS011;56589;51.992;5.924;2022-09-20T00:38:34;9.63;;;1.33;;
69401;SDS011;56589;51.992;5.924;2022-09-20T00:41:00;6.55;;;1.10;;
69401;SDS011;56589;51.992;5.924;2022-09-20T00:43:33;10.40;;;1.83;;
69401;SDS011;56589;51.992;5.924;2022-09-20T00:46:02;10.88;;;1.83;;
69401;SDS011;56589;51.992;5.924;2022-09-20T00:48:33;7.60;;;1.45;;
69401;SDS011;56589;51.992;5.924;2022-09-20T00:51:00;9.57;;;1.40;;
69401;SDS011;56589;51.992;5.924;2022-09-20T00:53:38;7.82;;;1.33;;
69401;SDS011;56589;51.992;5.924;2022-09-20T00:56:12;13.68;;;2.15;;
69401;SDS011;56589;51.992;5.924;2022-09-20T00:58:45;9.52;;;1.10;;
69401;SDS011;56589;51.992;5.924;2022-09-20T01:01:19;6.50;;;1.00;;
69401;SDS011;56589;51.992;5.924;2022-09-20T01:03:45;9.65;;;1.23;;
69401;SDS011;56589;51.992;5.924;2022-09-20T01:06:12;3.38;;;1.00;;
69401;SDS011;56589;51.992;5.924;2022-09-20T01:08:45;7.15;;;1.25;;
69401;SDS011;56589;51.992;5.924;2022-09-20T01:11:17;5.50;;;1.27;;
69401;SDS011;56589;51.992;5.924;2022-09-20T01:13:43;7.53;;;0.90;;
69401;SDS011;56589;51.992;5.924;2022-09-20T01:16:09;3.60;;;1.40;;
69401;SDS011;56589;51.992;5.924;2022-09-20T01:18:38;3.78;;;1.15;;
69401;SDS011;56589;51.992;5.924;2022-09-20T01:21:07;9.07;;;1.58;;
69401;SDS011;56589;51.992;5.924;2022-09-20T01:23:37;9.90;;;2.00;;
69401;SDS011;56589;51.992;5.924;2022-09-20T01:26:33;7.63;;;1.20;;
69401;SDS011;56589;51.992;5.924;2022-09-20T01:29:28;8.52;;;1.20;;
69401;SDS011;56589;51.992;5.924;2022-09-20T01:32:12;9.23;;;1.23;;
69401;SDS011;56589;51.992;5.924;2022-09-20T01:34:47;4.85;;;1.15;;
69401;SDS011;56589;51.992;5.924;2022-09-20T01:37:20;12.10;;;1.20;;
69401;SDS011;56589;51.992;5.924;2022-09-20T01:39:53;4.88;;;1.17;;
69401;SDS011;56589;51.992;5.924;2022-09-20T01:42:35;5.72;;;1.10;;
69401;SDS011;56589;51.992;5.924;2022-09-20T01:45:08;4.75;;;1.10;;
69401;SDS011;56589;51.992;5.924;2022-09-20T01:47:46;12.00;;;1.80;;
69401;SDS011;56589;51.992;5.924;2022-09-20T01:50:30;9.52;;;1.52;;
69401;SDS011;56589;51.992;5.924;2022-09-20T01:56:23;6.88;;;1.05;;
69401;SDS011;56589;51.992;5.924;2022-09-20T02:02:38;9.80;;;1.15;;
69401;SDS011;56589;51.992;5.924;2022-09-20T02:05:46;6.05;;;1.00;;
69401;SDS011;56589;51.992;5.924;2022-09-20T02:08:56;8.10;;;1.50;;
69401;SDS011;56589;51.992;5.924;2022-09-20T02:12:03;4.43;;;0.88;;
69401;SDS011;56589;51.992;5.924;2022-09-20T02:14:59;8.07;;;1.10;;
69401;SDS011;56589;51.992;5.924;2022-09-20T02:17:44;7.70;;;1.40;;
69401;SDS011;56589;51.992;5.924;2022-09-20T02:20:30;9.07;;;1.33;;
69401;SDS011;56589;51.992;5.924;2022-09-20T02:23:11;8.20;;;1.50;;
69401;SDS011;56589;51.992;5.924;2022-09-20T02:26:04;6.07;;;1.00;;
69401;SDS011;56589;51.992;5.924;2022-09-20T02:28:54;6.72;;;1.52;;
69401;SDS011;56589;51.992;5.924;2022-09-20T02:31:37;8.02;;;1.75;;
69401;SDS011;56589;51.992;5.924;2022-09-20T02:34:36;9.55;;;1.48;;
69401;SDS011;56589;51.992;5.924;2022-09-20T02:37:30;4.47;;;1.30;;
69401;SDS011;56589;51.992;5.924;2022-09-20T02:40:26;6.35;;;1.10;;
69401;SDS011;56589;51.992;5.924;2022-09-20T02:43:25;6.78;;;1.20;;
69401;SDS011;56589;51.992;5.924;2022-09-20T02:46:05;7.50;;;1.10;;
69401;SDS011;56589;51.992;5.924;2022-09-20T02:48:42;7.85;;;1.17;;
69401;SDS011;56589;51.992;5.924;2022-09-20T02:51:27;7.88;;;1.10;;
69401;SDS011;56589;51.992;5.924;2022-09-20T02:54:06;7.43;;;1.20;;
69401;SDS011;56589;51.992;5.924;2022-09-20T02:56:53;7.50;;;1.08;;
69401;SDS011;56589;51.992;5.924;2022-09-20T02:59:28;7.72;;;1.30;;
69401;SDS011;56589;51.992;5.924;2022-09-20T03:02:06;3.35;;;1.05;;
69401;SDS011;56589;51.992;5.924;2022-09-20T03:04:47;4.55;;;0.98;;
69401;SDS011;56589;51.992;5.924;2022-09-20T03:07:36;8.27;;;1.58;;
69401;SDS011;56589;51.992;5.924;2022-09-20T03:10:34;8.70;;;1.05;;
69401;SDS011;56589;51.992;5.924;2022-09-20T03:13:14;11.90;;;1.33;;
69401;SDS011;56589;51.992;5.924;2022-09-20T03:15:56;8.65;;;1.17;;
69401;SDS011;56589;51.992;5.924;2022-09-20T03:18:39;8.25;;;0.98;;
69401;SDS011;56589;51.992;5.924;2022-09-20T03:21:21;6.63;;;1.20;;
69401;SDS011;56589;51.992;5.924;2022-09-20T03:26:45;6.68;;;1.30;;
69401;SDS011;56589;51.992;5.924;2022-09-20T03:29:25;6.75;;;1.40;;
69401;SDS011;56589;51.992;5.924;2022-09-20T03:32:17;3.78;;;0.90;;
69401;SDS011;56589;51.992;5.924;2022-09-20T03:35:07;1.63;;;0.75;;
69401;SDS011;56589;51.992;5.924;2022-09-20T03:37:59;5.18;;;0.80;;
69401;SDS011;56589;51.992;5.924;2022-09-20T03:40:52;9.02;;;1.08;;
69401;SDS011;56589;51.992;5.924;2022-09-20T03:43:47;9.38;;;1.20;;
69401;SDS011;56589;51.992;5.924;2022-09-20T03:46:34;7.78;;;2.03;;
69401;SDS011;56589;51.992;5.924;2022-09-20T03:49:18;9.43;;;1.10;;
69401;SDS011;56589;51.992;5.924;2022-09-20T03:52:34;8.98;;;1.20;;
69401;SDS011;56589;51.992;5.924;2022-09-20T03:55:35;4.82;;;1.10;;
69401;SDS011;56589;51.992;5.924;2022-09-20T03:58:33;6.00;;;1.33;;
69401;SDS011;56589;51.992;5.924;2022-09-20T04:01:29;4.03;;;1.00;;
69401;SDS011;56589;51.992;5.924;2022-09-20T04:04:21;4.57;;;1.05;;
69401;SDS011;56589;51.992;5.924;2022-09-20T04:09:56;4.65;;;1.10;;
69401;SDS011;56589;51.992;5.924;2022-09-20T04:12:44;6.78;;;1.20;;
69401;SDS011;56589;51.992;5.924;2022-09-20T04:15:30;9.50;;;2.35;;
69401;SDS011;56589;51.992;5.924;2022-09-20T04:18:11;4.43;;;0.95;;
69401;SDS011;56589;51.992;5.924;2022-09-20T04:20:54;6.63;;;1.55;;
69401;SDS011;56589;51.992;5.924;2022-09-20T04:23:31;13.27;;;1.30;;
69401;SDS011;56589;51.992;5.924;2022-09-20T04:26:14;5.35;;;1.10;;
69401;SDS011;56589;51.992;5.924;2022-09-20T04:28:53;4.75;;;1.45;;
69401;SDS011;56589;51.992;5.924;2022-09-20T04:31:32;7.22;;;1.20;;
69401;SDS011;56589;51.992;5.924;2022-09-20T04:34:09;9.18;;;1.52;;
69401;SDS011;56589;51.992;5.924;2022-09-20T04:36:54;7.15;;;1.20;;
69401;SDS011;56589;51.992;5.924;2022-09-20T04:39:26;7.25;;;1.35;;
69401;SDS011;56589;51.992;5.924;2022-09-20T04:42:17;5.22;;;0.98;;
69401;SDS011;56589;51.992;5.924;2022-09-20T04:45:37;7.43;;;1.10;;
69401;SDS011;56589;51.992;5.924;2022-09-20T04:48:43;8.48;;;1.20;;
69401;SDS011;56589;51.992;5.924;2022-09-20T04:55:13;7.53;;;0.95;;
69401;SDS011;56589;51.992;5.924;2022-09-20T04:58:37;3.63;;;0.90;;
69401;SDS011;56589;51.992;5.924;2022-09-20T05:07:55;4.10;;;1.52;;
69401;SDS011;56589;51.992;5.924;2022-09-20T05:14:23;5.95;;;1.30;;
69401;SDS011;56589;51.992;5.924;2022-09-20T05:17:12;5.68;;;1.23;;
69401;SDS011;56589;51.992;5.924;2022-09-20T05:19:59;13.15;;;1.73;;
69401;SDS011;56589;51.992;5.924;2022-09-20T05:26:05;3.30;;;1.17;;
69401;SDS011;56589;51.992;5.924;2022-09-20T05:28:41;7.75;;;1.65;;
69401;SDS011;56589;51.992;5.924;2022-09-20T05:31:20;7.80;;;2.10;;
69401;SDS011;56589;51.992;5.924;2022-09-20T05:34:03;6.80;;;1.40;;
69401;SDS011;56589;51.992;5.924;2022-09-20T05:36:42;3.50;;;1.20;;
69401;SDS011;56589;51.992;5.924;2022-09-20T05:39:22;6.45;;;1.50;;
69401;SDS011;56589;51.992;5.924;2022-09-20T05:42:01;7.22;;;1.67;;
69401;SDS011;56589;51.992;5.924;2022-09-20T05:44:48;6.47;;;1.70;;
69401;SDS011;56589;51.992;5.924;2022-09-20T05:47:34;5.60;;;1.20;;
69401;SDS011;56589;51.992;5.924;2022-09-20T05:50:15;4.65;;;1.20;;
69401;SDS011;56589;51.992;5.924;2022-09-20T05:53:23;3.42;;;1.20;;
69401;SDS011;56589;51.992;5.924;2022-09-20T05:56:22;8.30;;;1.50;;
69401;SDS011;56589;51.992;5.924;2022-09-20T05:59:04;11.80;;;1.55;;
69401;SDS011;56589;51.992;5.924;2022-09-20T06:01:58;6.60;;;1.35;;
69401;SDS011;56589;51.992;5.924;2022-09-20T06:04:48;7.80;;;1.60;;
69401;SDS011;56589;51.992;5.924;2022-09-20T06:07:28;7.10;;;1.73;;
69401;SDS011;56589;51.992;5.924;2022-09-20T06:13:28;8.65;;;1.63;;
69401;SDS011;56589;51.992;5.924;2022-09-20T06:16:13;4.18;;;1.38;;
69401;SDS011;56589;51.992;5.924;2022-09-20T06:18:54;8.80;;;1.42;;
69401;SDS011;56589;51.992;5.924;2022-09-20T06:21:37;9.27;;;1.90;;
69401;SDS011;56589;51.992;5.924;2022-09-20T06:24:16;5.68;;;1.17;;
69401;SDS011;56589;51.992;5.924;2022-09-20T06:27:00;5.28;;;1.05;;
69401;SDS011;56589;51.992;5.924;2022-09-20T06:29:33;7.22;;;1.70;;
69401;SDS011;56589;51.992;5.924;2022-09-20T06:32:03;5.43;;;1.35;;
69401;SDS011;56589;51.992;5.924;2022-09-20T06:34:29;5.95;;;1.10;;
69401;SDS011;56589;51.992;5.924;2022-09-20T06:36:58;6.65;;;1.80;;
69401;SDS011;56589;51.992;5.924;2022-09-20T06:39:40;9.50;;;1.90;;
69401;SDS011;56589;51.992;5.924;2022-09-20T06:42:16;7.35;;;1.23;;
69401;SDS011;56589;51.992;5.924;2022-09-20T06:44:42;3.50;;;1.00;;
69401;SDS011;56589;51.992;5.924;2022-09-20T06:47:08;5.40;;;1.55;;
69401;SDS011;56589;51.992;5.924;2022-09-20T06:49:35;9.15;;;1.38;;
69401;SDS011;56589;51.992;5.924;2022-09-20T06:52:02;6.35;;;1.13;;
69401;SDS011;56589;51.992;5.924;2022-09-20T06:54:30;3.58;;;1.00;;
69401;SDS011;56589;51.992;5.924;2022-09-20T06:56:56;8.13;;;1.17;;
69401;SDS011;56589;51.992;5.924;2022-09-20T06:59:29;8.35;;;1.10;;
69401;SDS011;56589;51.992;5.924;2022-09-20T07:01:55;7.53;;;1.48;;
69401;SDS011;56589;51.992;5.924;2022-09-20T07:04:21;6.03;;;0.93;;
69401;SDS011;56589;51.992;5.924;2022-09-20T07:06:46;4.55;;;1.20;;
69401;SDS011;56589;51.992;5.924;2022-09-20T07:09:12;6.00;;;1.15;;
69401;SDS011;56589;51.992;5.924;2022-09-20T07:11:38;7.05;;;1.55;;
69401;SDS011;56589;51.992;5.924;2022-09-20T07:14:03;9.10;;;1.55;;
69401;SDS011;56589;51.992;5.924;2022-09-20T07:16:32;4.60;;;1.17;;
69401;SDS011;56589;51.992;5.924;2022-09-20T07:18:58;6.90;;;1.73;;
69401;SDS011;56589;51.992;5.924;2022-09-20T07:21:24;8.10;;;2.15;;
69401;SDS011;56589;51.992;5.924;2022-09-20T07:23:49;7.68;;;1.65;;
69401;SDS011;56589;51.992;5.924;2022-09-20T07:26:16;5.38;;;1.50;;
69401;SDS011;56589;51.992;5.924;2022-09-20T07:28:44;7.72;;;1.70;;
69401;SDS011;56589;51.992;5.924;2022-09-20T07:31:10;4.75;;;1.52;;
69401;SDS011;56589;51.992;5.924;2022-09-20T07:33:40;10.15;;;2.50;;
69401;SDS011;56589;51.992;5.924;2022-09-20T07:36:06;2.75;;;1.30;;
69401;SDS011;56589;51.992;5.924;2022-09-20T07:38:33;8.23;;;1.90;;
69401;SDS011;56589;51.992;5.924;2022-09-20T07:40:59;4.65;;;1.10;;
69401;SDS011;56589;51.992;5.924;2022-09-20T07:43:26;4.15;;;1.40;;
69401;SDS011;56589;51.992;5.924;2022-09-20T07:45:54;5.97;;;1.65;;
69401;SDS011;56589;51.992;5.924;2022-09-20T07:48:20;7.40;;;1.55;;
69401;SDS011;56589;51.992;5.924;2022-09-20T07:50:51;5.40;;;1.08;;
69401;SDS011;56589;51.992;5.924;2022-09-20T07:53:20;4.78;;;1.33;;
69401;SDS011;56589;51.992;5.924;2022-09-20T07:55:55;5.82;;;1.70;;
69401;SDS011;56589;51.992;5.924;2022-09-20T07:58:23;5.15;;;1.33;;
69401;SDS011;56589;51.992;5.924;2022-09-20T08:00:50;5.18;;;1.35;;
69401;SDS011;56589;51.992;5.924;2022-09-20T08:03:17;4.35;;;0.82;;
69401;SDS011;56589;51.992;5.924;2022-09-20T08:05:43;5.75;;;1.30;;
69401;SDS011;56589;51.992;5.924;2022-09-20T08:08:11;7.15;;;1.30;;
69401;SDS011;56589;51.992;5.924;2022-09-20T08:10:37;6.45;;;1.20;;
69401;SDS011;56589;51.992;5.924;2022-09-20T08:13:03;5.35;;;1.67;;
69401;SDS011;56589;51.992;5.924;2022-09-20T08:15:28;5.88;;;1.35;;
69401;SDS011;56589;51.992;5.924;2022-09-20T08:17:54;8.00;;;1.38;;
69401;SDS011;56589;51.992;5.924;2022-09-20T08:20:20;6.43;;;1.50;;
69401;SDS011;56589;51.992;5.924;2022-09-20T08:22:46;2.95;;;1.23;;
69401;SDS011;56589;51.992;5.924;2022-09-20T08:25:14;5.43;;;1.60;;
69401;SDS011;56589;51.992;5.924;2022-09-20T08:27:40;6.95;;;1.50;;
69401;SDS011;56589;51.992;5.924;2022-09-20T08:30:06;9.40;;;2.08;;
69401;SDS011;56589;51.992;5.924;2022-09-20T08:32:36;7.80;;;1.65;;
69401;SDS011;56589;51.992;5.924;2022-09-20T08:35:03;3.35;;;1.13;;
69401;SDS011;56589;51.992;5.924;2022-09-20T08:37:30;7.15;;;1.23;;
69401;SDS011;56589;51.992;5.924;2022-09-20T08:39:55;6.28;;;1.52;;
69401;SDS011;56589;51.992;5.924;2022-09-20T08:42:25;3.13;;;1.20;;
69401;SDS011;56589;51.992;5.924;2022-09-20T08:44:57;10.20;;;2.75;;
69401;SDS011;56589;51.992;5.924;2022-09-20T08:47:30;7.63;;;1.15;;
69401;SDS011;56589;51.992;5.924;2022-09-20T08:50:03;6.93;;;1.25;;
69401;SDS011;56589;51.992;5.924;2022-09-20T08:52:32;5.95;;;0.95;;
69401;SDS011;56589;51.992;5.924;2022-09-20T08:55:01;11.77;;;1.48;;
69401;SDS011;56589;51.992;5.924;2022-09-20T08:57:39;7.40;;;1.10;;
69401;SDS011;56589;51.992;5.924;2022-09-20T09:00:06;5.57;;;1.23;;
69401;SDS011;56589;51.992;5.924;2022-09-20T09:02:40;5.50;;;1.10;;
69401;SDS011;56589;51.992;5.924;2022-09-20T09:05:09;5.10;;;0.98;;
69401;SDS011;56589;51.992;5.924;2022-09-20T09:07:53;4.10;;;0.90;;
69401;SDS011;56589;51.992;5.924;2022-09-20T09:10:19;3.10;;;1.00;;
69401;SDS011;56589;51.992;5.924;2022-09-20T09:12:47;5.57;;;1.13;;
69401;SDS011;56589;51.992;5.924;2022-09-20T09:15:19;1.65;;;0.60;;
69401;SDS011;56589;51.992;5.924;2022-09-20T09:17:52;3.83;;;0.85;;
69401;SDS011;56589;51.992;5.924;2022-09-20T09:20:19;4.78;;;0.90;;
69401;SDS011;56589;51.992;5.924;2022-09-20T09:22:47;2.17;;;0.60;;
69401;SDS011;56589;51.992;5.924;2022-09-20T09:25:24;3.67;;;0.75;;
69401;SDS011;56589;51.992;5.924;2022-09-20T09:27:55;4.18;;;0.90;;
69401;SDS011;56589;51.992;5.924;2022-09-20T09:30:24;7.50;;;0.80;;
69401;SDS011;56589;51.992;5.924;2022-09-20T09:33:13;3.40;;;0.70;;
69401;SDS011;56589;51.992;5.924;2022-09-20T09:35:52;3.38;;;0.70;;
69401;SDS011;56589;51.992;5.924;2022-09-20T09:38:21;3.65;;;0.77;;
69401;SDS011;56589;51.992;5.924;2022-09-20T09:40:51;4.75;;;0.70;;
69401;SDS011;56589;51.992;5.924;2022-09-20T09:43:22;5.28;;;0.77;;
69401;SDS011;56589;51.992;5.924;2022-09-20T09:45:50;2.38;;;0.60;;
69401;SDS011;56589;51.992;5.924;2022-09-20T09:48:17;2.92;;;0.70;;
69401;SDS011;56589;51.992;5.924;2022-09-20T09:50:47;6.03;;;0.80;;
69401;SDS011;56589;51.992;5.924;2022-09-20T09:53:14;3.50;;;1.00;;
69401;SDS011;56589;51.992;5.924;2022-09-20T09:55:58;5.88;;;0.68;;
69401;SDS011;56589;51.992;5.924;2022-09-20T09:59:04;3.38;;;0.80;;
69401;SDS011;56589;51.992;5.924;2022-09-20T10:01:53;4.57;;;0.98;;
69401;SDS011;56589;51.992;5.924;2022-09-20T10:04:39;8.07;;;0.85;;
69401;SDS011;56589;51.992;5.924;2022-09-20T10:07:16;5.43;;;1.02;;
69401;SDS011;56589;51.992;5.924;2022-09-20T10:09:57;2.85;;;0.80;;
69401;SDS011;56589;51.992;5.924;2022-09-20T10:12:41;4.57;;;0.70;;
69401;SDS011;56589;51.992;5.924;2022-09-20T10:15:29;1.08;;;0.50;;
69401;SDS011;56589;51.992;5.924;2022-09-20T10:18:09;3.47;;;0.45;;
69401;SDS011;56589;51.992;5.924;2022-09-20T10:20:58;3.40;;;0.60;;
69401;SDS011;56589;51.992;5.924;2022-09-20T10:23:51;4.28;;;0.77;;
69401;SDS011;56589;51.992;5.924;2022-09-20T10:26:35;5.70;;;0.60;;
69401;SDS011;56589;51.992;5.924;2022-09-20T10:29:29;3.38;;;0.77;;
69401;SDS011;56589;51.992;5.924;2022-09-20T10:32:16;7.15;;;0.95;;
69401;SDS011;56589;51.992;5.924;2022-09-20T10:35:00;5.90;;;0.80;;
69401;SDS011;56589;51.992;5.924;2022-09-20T10:38:04;4.47;;;0.63;;
69401;SDS011;56589;51.992;5.924;2022-09-20T10:40:39;4.45;;;0.68;;
69401;SDS011;56589;51.992;5.924;2022-09-20T10:43:37;3.08;;;0.60;;
69401;SDS011;56589;51.992;5.924;2022-09-20T10:46:24;1.55;;;0.22;;
69401;SDS011;56589;51.992;5.924;2022-09-20T10:49:09;4.68;;;0.50;;
69401;SDS011;56589;51.992;5.924;2022-09-20T10:52:03;4.65;;;0.55;;
69401;SDS011;56589;51.992;5.924;2022-09-20T10:54:55;5.22;;;0.70;;
69401;SDS011;56589;51.992;5.924;2022-09-20T11:01:17;4.45;;;0.50;;
69401;SDS011;56589;51.992;5.924;2022-09-20T11:04:16;6.22;;;0.90;;
69401;SDS011;56589;51.992;5.924;2022-09-20T11:07:25;5.28;;;0.63;;
69401;SDS011;56589;51.992;5.924;2022-09-20T11:10:13;3.90;;;0.55;;
69401;SDS011;56589;51.992;5.924;2022-09-20T11:12:46;5.90;;;0.70;;
69401;SDS011;56589;51.992;5.924;2022-09-20T11:15:18;9.43;;;1.10;;
69401;SDS011;56589;51.992;5.924;2022-09-20T11:17:58;4.38;;;0.60;;
69401;SDS011;56589;51.992;5.924;2022-09-20T11:20:39;4.22;;;1.27;;
69401;SDS011;56589;51.992;5.924;2022-09-20T11:23:12;3.40;;;0.77;;
69401;SDS011;56589;51.992;5.924;2022-09-20T11:25:46;2.30;;;0.52;;
69401;SDS011;56589;51.992;5.924;2022-09-20T11:28:18;6.93;;;1.05;;
69401;SDS011;56589;51.992;5.924;2022-09-20T11:30:53;8.02;;;0.88;;
69401;SDS011;56589;51.992;5.924;2022-09-20T11:33:27;8.07;;;0.80;;
69401;SDS011;56589;51.992;5.924;2022-09-20T11:36:04;4.28;;;0.70;;
69401;SDS011;56589;51.992;5.924;2022-09-20T11:38:40;4.97;;;0.73;;
69401;SDS011;56589;51.992;5.924;2022-09-20T11:41:14;7.50;;;0.73;;
69401;SDS011;56589;51.992;5.924;2022-09-20T11:43:47;4.85;;;0.60;;
69401;SDS011;56589;51.992;5.924;2022-09-20T11:46:18;4.53;;;0.70;;
69401;SDS011;56589;51.992;5.924;2022-09-20T11:48:52;5.55;;;0.60;;
69401;SDS011;56589;51.992;5.924;2022-09-20T11:58:06;3.58;;;0.45;;
69401;SDS011;56589;51.992;5.924;2022-09-20T12:00:36;1.88;;;0.50;;
69401;SDS011;56589;51.992;5.924;2022-09-20T12:03:06;6.18;;;0.80;;
69401;SDS011;56589;51.992;5.924;2022-09-20T12:05:54;10.48;;;1.55;;
69401;SDS011;56589;51.992;5.924;2022-09-20T12:08:24;2.63;;;0.47;;
69401;SDS011;56589;51.992;5.924;2022-09-20T12:10:57;2.17;;;0.43;;
69401;SDS011;56589;51.992;5.924;2022-09-20T12:13:28;3.03;;;0.70;;
69401;SDS011;56589;51.992;5.924;2022-09-20T12:15:59;4.35;;;0.60;;
69401;SDS011;56589;51.992;5.924;2022-09-20T12:18:30;3.58;;;0.65;;
69401;SDS011;56589;51.992;5.924;2022-09-20T12:21:28;5.15;;;0.90;;
69401;SDS011;56589;51.992;5.924;2022-09-20T12:26:50;3.08;;;0.55;;
69401;SDS011;56589;51.992;5.924;2022-09-20T12:41:24;3.70;;;0.50;;
69401;SDS011;56589;51.992;5.924;2022-09-20T12:44:04;3.95;;;0.60;;
69401;SDS011;56589;51.992;5.924;2022-09-20T12:46:50;5.00;;;0.60;;
69401;SDS011;56589;51.992;5.924;2022-09-20T12:49:26;3.72;;;0.55;;
69401;SDS011;56589;51.992;5.924;2022-09-20T12:52:00;4.47;;;0.77;;
69401;SDS011;56589;51.992;5.924;2022-09-20T12:54:26;3.70;;;0.55;;
69401;SDS011;56589;51.992;5.924;2022-09-20T12:56:52;4.97;;;0.85;;
69401;SDS011;56589;51.992;5.924;2022-09-20T12:59:22;2.90;;;0.70;;
69401;SDS011;56589;51.992;5.924;2022-09-20T13:01:51;4.50;;;0.80;;
69401;SDS011;56589;51.992;5.924;2022-09-20T13:07:25;4.47;;;0.70;;
69401;SDS011;56589;51.992;5.924;2022-09-20T13:10:04;4.78;;;0.75;;
69401;SDS011;56589;51.992;5.924;2022-09-20T13:12:44;5.15;;;0.55;;
69401;SDS011;56589;51.992;5.924;2022-09-20T13:15:15;2.75;;;0.60;;
69401;SDS011;56589;51.992;5.924;2022-09-20T13:17:44;7.05;;;0.65;;
69401;SDS011;56589;51.992;5.924;2022-09-20T13:20:15;4.03;;;1.00;;
69401;SDS011;56589;51.992;5.924;2022-09-20T13:22:46;2.38;;;0.60;;
69401;SDS011;56589;51.992;5.924;2022-09-20T13:25:14;3.15;;;0.60;;
69401;SDS011;56589;51.992;5.924;2022-09-20T13:27:49;2.70;;;0.52;;
69401;SDS011;56589;51.992;5.924;2022-09-20T13:30:27;4.30;;;0.52;;
69401;SDS011;56589;51.992;5.924;2022-09-20T13:32:54;2.97;;;0.60;;
69401;SDS011;56589;51.992;5.924;2022-09-20T13:35:20;5.30;;;0.82;;
69401;SDS011;56589;51.992;5.924;2022-09-20T13:37:50;5.50;;;0.40;;
69401;SDS011;56589;51.992;5.924;2022-09-20T13:40:20;3.83;;;0.60;;
69401;SDS011;56589;51.992;5.924;2022-09-20T13:42:50;7.85;;;0.98;;
69401;SDS011;56589;51.992;5.924;2022-09-20T13:45:18;3.53;;;0.60;;
69401;SDS011;56589;51.992;5.924;2022-09-20T13:47:50;6.38;;;0.80;;
69401;SDS011;56589;51.992;5.924;2022-09-20T13:50:20;6.33;;;0.70;;
69401;SDS011;56589;51.992;5.924;2022-09-20T13:52:53;6.47;;;0.47;;
69401;SDS011;56589;51.992;5.924;2022-09-20T13:55:28;4.10;;;0.50;;
69401;SDS011;56589;51.992;5.924;2022-09-20T13:57:58;6.60;;;0.75;;
69401;SDS011;56589;51.992;5.924;2022-09-20T14:00:28;4.20;;;0.80;;
69401;SDS011;56589;51.992;5.924;2022-09-20T14:02:58;3.85;;;0.68;;
69401;SDS011;56589;51.992;5.924;2022-09-20T14:05:25;8.38;;;0.82;;
69401;SDS011;56589;51.992;5.924;2022-09-20T14:07:54;6.82;;;1.75;;
69401;SDS011;56589;51.992;5.924;2022-09-20T14:10:30;4.75;;;0.73;;
69401;SDS011;56589;51.992;5.924;2022-09-20T14:13:00;4.82;;;0.57;;
69401;SDS011;56589;51.992;5.924;2022-09-20T14:15:31;3.65;;;0.73;;
69401;SDS011;56589;51.992;5.924;2022-09-20T14:18:06;4.03;;;0.80;;
69401;SDS011;56589;51.992;5.924;2022-09-20T14:20:39;6.05;;;0.82;;
69401;SDS011;56589;51.992;5.924;2022-09-20T14:23:13;6.72;;;0.98;;
69401;SDS011;56589;51.992;5.924;2022-09-20T14:28:48;5.03;;;0.80;;
69401;SDS011;56589;51.992;5.924;2022-09-20T14:31:15;7.03;;;0.55;;
69401;SDS011;56589;51.992;5.924;2022-09-20T14:33:50;3.90;;;0.63;;
69401;SDS011;56589;51.992;5.924;2022-09-20T14:38:49;3.88;;;0.60;;
69401;SDS011;56589;51.992;5.924;2022-09-20T14:41:26;5.45;;;0.75;;
69401;SDS011;56589;51.992;5.924;2022-09-20T14:44:00;4.30;;;0.80;;
69401;SDS011;56589;51.992;5.924;2022-09-20T14:46:30;3.95;;;0.52;;
69401;SDS011;56589;51.992;5.924;2022-09-20T14:55:00;2.83;;;0.57;;
69401;SDS011;56589;51.992;5.924;2022-09-20T14:57:39;5.65;;;1.23;;
69401;SDS011;56589;51.992;5.924;2022-09-20T15:00:07;4.40;;;0.65;;
69401;SDS011;56589;51.992;5.924;2022-09-20T15:02:37;3.75;;;0.75;;
69401;SDS011;56589;51.992;5.924;2022-09-20T15:05:17;3.55;;;0.43;;
69401;SDS011;56589;51.992;5.924;2022-09-20T15:07:48;4.68;;;0.60;;
69401;SDS011;56589;51.992;5.924;2022-09-20T15:10:14;4.82;;;0.70;;
69401;SDS011;56589;51.992;5.924;2022-09-20T15:12:40;6.38;;;0.60;;
69401;SDS011;56589;51.992;5.924;2022-09-20T15:15:07;1.85;;;0.43;;
69401;SDS011;56589;51.992;5.924;2022-09-20T15:17:37;7.55;;;0.70;;
69401;SDS011;56589;51.992;5.924;2022-09-20T15:20:03;2.30;;;1.02;;
69401;SDS011;56589;51.992;5.924;2022-09-20T15:22:35;2.72;;;0.63;;
69401;SDS011;56589;51.992;5.924;2022-09-20T15:25:01;4.70;;;0.50;;
69401;SDS011;56589;51.992;5.924;2022-09-20T15:27:27;3.15;;;0.40;;
69401;SDS011;56589;51.992;5.924;2022-09-20T15:29:53;5.18;;;0.55;;
69401;SDS011;56589;51.992;5.924;2022-09-20T15:32:19;4.97;;;0.60;;
69401;SDS011;56589;51.992;5.924;2022-09-20T15:34:45;5.70;;;0.73;;
69401;SDS011;56589;51.992;5.924;2022-09-20T15:37:10;4.43;;;0.57;;
69401;SDS011;56589;51.992;5.924;2022-09-20T15:39:39;2.30;;;0.90;;
69401;SDS011;56589;51.992;5.924;2022-09-20T15:42:05;2.95;;;0.55;;
69401;SDS011;56589;51.992;5.924;2022-09-20T15:44:31;2.97;;;0.45;;
69401;SDS011;56589;51.992;5.924;2022-09-20T15:46:56;5.50;;;0.68;;
69401;SDS011;56589;51.992;5.924;2022-09-20T15:49:22;6.97;;;0.60;;
69401;SDS011;56589;51.992;5.924;2022-09-20T15:51:48;3.35;;;0.50;;
69401;SDS011;56589;51.992;5.924;2022-09-20T15:54:14;2.83;;;0.88;;
69401;SDS011;56589;51.992;5.924;2022-09-20T15:56:42;1.23;;;0.38;;
69401;SDS011;56589;51.992;5.924;2022-09-20T15:59:09;2.58;;;0.50;;
69401;SDS011;56589;51.992;5.924;2022-09-20T16:01:36;6.00;;;0.80;;
69401;SDS011;56589;51.992;5.924;2022-09-20T16:04:05;5.18;;;0.68;;
69401;SDS011;56589;51.992;5.924;2022-09-20T16:06:33;7.47;;;0.88;;
69401;SDS011;56589;51.992;5.924;2022-09-20T16:08:59;6.32;;;0.85;;
69401;SDS011;56589;51.992;5.924;2022-09-20T16:11:25;3.53;;;0.55;;
69401;SDS011;56589;51.992;5.924;2022-09-20T16:13:56;2.67;;;0.55;;
69401;SDS011;56589;51.992;5.924;2022-09-20T16:16:24;2.13;;;0.60;;
69401;SDS011;56589;51.992;5.924;2022-09-20T16:18:51;2.17;;;0.73;;
69401;SDS011;56589;51.992;5.924;2022-09-20T16:21:17;2.85;;;0.60;;
69401;SDS011;56589;51.992;5.924;2022-09-20T16:23:45;4.22;;;0.68;;
69401;SDS011;56589;51.992;5.924;2022-09-20T16:26:12;4.53;;;0.52;;
69401;SDS011;56589;51.992;5.924;2022-09-20T16:28:38;5.60;;;0.43;;
69401;SDS011;56589;51.992;5.924;2022-09-20T16:31:22;7.85;;;0.52;;
69401;SDS011;56589;51.992;5.924;2022-09-20T16:33:54;3.08;;;0.63;;
69401;SDS011;56589;51.992;5.924;2022-09-20T16:36:20;3.65;;;0.32;;
69401;SDS011;56589;51.992;5.924;2022-09-20T16:38:46;3.80;;;0.50;;
69401;SDS011;56589;51.992;5.924;2022-09-20T16:41:12;2.28;;;0.40;;
69401;SDS011;56589;51.992;5.924;2022-09-20T16:43:37;0.95;;;0.50;;
69401;SDS011;56589;51.992;5.924;2022-09-20T16:46:03;3.63;;;0.60;;
69401;SDS011;56589;51.992;5.924;2022-09-20T16:48:32;3.45;;;0.50;;
69401;SDS011;56589;51.992;5.924;2022-09-20T16:50:57;3.10;;;0.35;;
69401;SDS011;56589;51.992;5.924;2022-09-20T16:53:24;4.82;;;0.75;;